sensor_id;sensor_type;location;lat;lon;timestamp;pressure;altitude;pressure_sealevel;temperature;humidity
79415;BME280;68864;44.972;19.612;2024-03-25T00:00:18;99965.41;;;4.95;90.92
79415;BME280;68864;44.972;19.612;2024-03-25T00:02:46;99944.91;;;4.84;90.30
79415;BME280;68864;44.972;19.612;2024-03-25T00:05:14;99962.66;;;4.95;89.59
79415;BME280;68864;44.972;19.612;2024-03-25T00:07:45;99958.28;;;4.94;89.88
79415;BME280;68864;44.972;19.612;2024-03-25T00:10:12;99959.88;;;4.95;89.30
79415;BME280;68864;44.972;19.612;2024-03-25T00:12:39;99952.75;;;4.94;89.12
79415;BME280;68864;44.972;19.612;2024-03-25T00:15:05;99964.53;;;5.03;89.63
79415;BME280;68864;44.972;19.612;2024-03-25T00:17:33;99952.09;;;5.09;88.64
79415;BME280;68864;44.972;19.612;2024-03-25T00:20:01;99953.72;;;5.10;89.13
79415;BME280;68864;44.972;19.612;2024-03-25T00:22:28;99944.97;;;5.08;88.74
79415;BME280;68864;44.972;19.612;2024-03-25T00:24:55;99953.72;;;5.10;88.80
79415;BME280;68864;44.972;19.612;2024-03-25T00:27:21;99952.56;;;5.11;88.88
79415;BME280;68864;44.972;19.612;2024-03-25T00:29:48;99940.50;;;5.15;88.09
79415;BME280;68864;44.972;19.612;2024-03-25T00:32:14;99937.59;;;5.12;88.15
79415;BME280;68864;44.972;19.612;2024-03-25T00:34:41;99940.97;;;5.17;87.57
79415;BME280;68864;44.972;19.612;2024-03-25T00:37:07;99943.25;;;5.15;87.77
79415;BME280;68864;44.972;19.612;2024-03-25T00:39:36;99943.97;;;5.25;87.63
79415;BME280;68864;44.972;19.612;2024-03-25T00:42:02;99941.88;;;5.22;87.77
79415;BME280;68864;44.972;19.612;2024-03-25T00:44:29;99941.19;;;5.25;87.45
79415;BME280;68864;44.972;19.612;2024-03-25T00:46:55;99925.63;;;5.20;87.39
79415;BME280;68864;44.972;19.612;2024-03-25T00:49:22;99938.53;;;5.28;86.80
79415;BME280;68864;44.972;19.612;2024-03-25T00:51:48;99930.97;;;5.25;86.96
79415;BME280;68864;44.972;19.612;2024-03-25T00:54:15;99943.59;;;5.26;86.21
79415;BME280;68864;44.972;19.612;2024-03-25T00:56:43;99947.16;;;5.27;86.32
79415;BME280;68864;44.972;19.612;2024-03-25T00:59:11;99952.13;;;5.21;86.49
79415;BME280;68864;44.972;19.612;2024-03-25T01:01:37;99938.31;;;5.21;86.59
79415;BME280;68864;44.972;19.612;2024-03-25T01:04:04;99955.81;;;5.25;86.75
79415;BME280;68864;44.972;19.612;2024-03-25T01:06:30;99961.34;;;5.25;86.63
79415;BME280;68864;44.972;19.612;2024-03-25T01:08:59;99951.44;;;5.24;86.94
79415;BME280;68864;44.972;19.612;2024-03-25T01:11:25;99949.50;;;5.25;86.86
79415;BME280;68864;44.972;19.612;2024-03-25T01:13:53;99949.50;;;5.25;86.26
79415;BME280;68864;44.972;19.612;2024-03-25T01:16:19;99948.63;;;5.12;87.50
79415;BME280;68864;44.972;19.612;2024-03-25T01:18:46;99960.16;;;5.14;87.70
79415;BME280;68864;44.972;19.612;2024-03-25T01:21:12;99938.53;;;5.16;85.88
79415;BME280;68864;44.972;19.612;2024-03-25T01:23:39;99942.59;;;5.31;86.25
79415;BME280;68864;44.972;19.612;2024-03-25T01:26:05;99943.41;;;5.31;85.96
79415;BME280;68864;44.972;19.612;2024-03-25T01:28:32;99944.31;;;5.35;85.34
79415;BME280;68864;44.972;19.612;2024-03-25T01:30:59;99942.03;;;5.37;85.10
79415;BME280;68864;44.972;19.612;2024-03-25T01:33:26;99943.63;;;5.38;85.49
79415;BME280;68864;44.972;19.612;2024-03-25T01:35:52;99941.22;;;5.37;85.63
79415;BME280;68864;44.972;19.612;2024-03-25T01:38:21;99936.50;;;5.37;85.36
79415;BME280;68864;44.972;19.612;2024-03-25T01:40:47;99934.88;;;5.36;84.95
79415;BME280;68864;44.972;19.612;2024-03-25T01:43:14;99926.59;;;5.36;85.91
79415;BME280;68864;44.972;19.612;2024-03-25T01:45:42;99927.06;;;5.38;85.45
79415;BME280;68864;44.972;19.612;2024-03-25T01:48:11;99924.41;;;5.42;85.21
79415;BME280;68864;44.972;19.612;2024-03-25T01:50:40;99917.16;;;5.37;85.63
79415;BME280;68864;44.972;19.612;2024-03-25T01:53:09;99919.22;;;5.40;85.36
79415;BME280;68864;44.972;19.612;2024-03-25T01:55:35;99928.44;;;5.44;85.58
79415;BME280;68864;44.972;19.612;2024-03-25T01:58:05;99921.06;;;5.48;85.42
79415;BME280;68864;44.972;19.612;2024-03-25T02:00:31;99929.00;;;5.50;86.19
79415;BME280;68864;44.972;19.612;2024-03-25T02:02:59;99929.00;;;5.50;86.88
79415;BME280;68864;44.972;19.612;2024-03-25T02:05:26;99932.22;;;5.52;87.33
79415;BME280;68864;44.972;19.612;2024-03-25T02:07:54;99932.59;;;5.50;86.88
79415;BME280;68864;44.972;19.612;2024-03-25T02:10:21;99936.16;;;5.51;86.61
79415;BME280;68864;44.972;19.612;2024-03-25T02:12:48;99940.16;;;5.41;87.49
79415;BME280;68864;44.972;19.612;2024-03-25T02:15:14;99944.88;;;5.41;86.56
79415;BME280;68864;44.972;19.612;2024-03-25T02:17:41;99932.22;;;5.40;86.25
79415;BME280;68864;44.972;19.612;2024-03-25T02:20:09;99925.31;;;5.34;86.37
79415;BME280;68864;44.972;19.612;2024-03-25T02:22:37;99938.09;;;5.38;85.90
79415;BME280;68864;44.972;19.612;2024-03-25T02:25:06;99940.50;;;5.40;86.22
79415;BME280;68864;44.972;19.612;2024-03-25T02:27:35;99934.97;;;5.40;86.50
79415;BME280;68864;44.972;19.612;2024-03-25T02:30:03;99942.03;;;5.37;86.73
79415;BME280;68864;44.972;19.612;2024-03-25T02:32:31;99942.03;;;5.37;86.70
79415;BME280;68864;44.972;19.612;2024-03-25T02:34:57;99926.34;;;5.29;87.23
79415;BME280;68864;44.972;19.612;2024-03-25T02:37:25;99939.13;;;5.34;88.03
79415;BME280;68864;44.972;19.612;2024-03-25T02:39:53;99933.72;;;5.37;88.27
79415;BME280;68864;44.972;19.612;2024-03-25T02:42:22;99937.75;;;5.40;87.56
79415;BME280;68864;44.972;19.612;2024-03-25T02:44:50;99924.88;;;5.32;88.32
79415;BME280;68864;44.972;19.612;2024-03-25T02:47:17;99941.31;;;5.40;88.29
79415;BME280;68864;44.972;19.612;2024-03-25T02:49:43;99940.97;;;5.42;88.76
79415;BME280;68864;44.972;19.612;2024-03-25T02:52:10;99931.78;;;5.38;88.00
79415;BME280;68864;44.972;19.612;2024-03-25T02:54:36;99944.56;;;5.42;87.73
79415;BME280;68864;44.972;19.612;2024-03-25T02:57:04;99947.66;;;5.41;87.94
79415;BME280;68864;44.972;19.612;2024-03-25T02:59:30;99939.94;;;5.34;87.86
79415;BME280;68864;44.972;19.612;2024-03-25T03:01:58;99961.22;;;5.34;88.58
79415;BME280;68864;44.972;19.612;2024-03-25T03:04:24;99948.56;;;5.33;89.04
79415;BME280;68864;44.972;19.612;2024-03-25T03:06:51;99941.78;;;5.30;89.40
79415;BME280;68864;44.972;19.612;2024-03-25T03:09:17;99956.84;;;5.33;88.33
79415;BME280;68864;44.972;19.612;2024-03-25T03:11:45;99952.50;;;5.32;89.23
79415;BME280;68864;44.972;19.612;2024-03-25T03:14:11;99953.63;;;5.31;88.86
79415;BME280;68864;44.972;19.612;2024-03-25T03:16:38;99965.50;;;5.31;89.38
79415;BME280;68864;44.972;19.612;2024-03-25T03:19:05;99961.47;;;5.29;89.07
79415;BME280;68864;44.972;19.612;2024-03-25T03:21:32;99955.81;;;5.25;89.67
79415;BME280;68864;44.972;19.612;2024-03-25T03:23:58;99962.84;;;5.23;90.02
79415;BME280;68864;44.972;19.612;2024-03-25T03:26:25;99967.44;;;5.18;89.33
79415;BME280;68864;44.972;19.612;2024-03-25T03:28:53;99970.97;;;5.19;90.21
79415;BME280;68864;44.972;19.612;2024-03-25T03:31:20;99958.34;;;5.18;89.60
79415;BME280;68864;44.972;19.612;2024-03-25T03:33:47;99966.75;;;5.22;88.99
79415;BME280;68864;44.972;19.612;2024-03-25T03:36:16;99976.97;;;5.21;90.07
79415;BME280;68864;44.972;19.612;2024-03-25T03:38:43;99977.44;;;5.23;89.92
79415;BME280;68864;44.972;19.612;2024-03-25T03:41:10;99981.38;;;5.22;89.96
79415;BME280;68864;44.972;19.612;2024-03-25T03:43:36;99986.88;;;5.22;89.68
79415;BME280;68864;44.972;19.612;2024-03-25T03:46:04;99987.34;;;5.24;90.19
79415;BME280;68864;44.972;19.612;2024-03-25T03:48:30;99970.88;;;5.15;91.10
79415;BME280;68864;44.972;19.612;2024-03-25T03:50:57;99977.22;;;5.16;91.82
79415;BME280;68864;44.972;19.612;2024-03-25T03:53:25;99987.22;;;5.20;90.76
79415;BME280;68864;44.972;19.612;2024-03-25T03:55:55;99979.63;;;5.17;91.03
79415;BME280;68864;44.972;19.612;2024-03-25T03:58:22;99985.28;;;5.21;90.98
79415;BME280;68864;44.972;19.612;2024-03-25T04:00:49;99991.25;;;5.23;90.22
79415;BME280;68864;44.972;19.612;2024-03-25T04:03:15;99978.00;;;5.16;91.15
79415;BME280;68864;44.972;19.612;2024-03-25T04:05:42;99999.22;;;5.25;91.10
79415;BME280;68864;44.972;19.612;2024-03-25T04:08:09;99984.78;;;5.19;90.03
79415;BME280;68864;44.972;19.612;2024-03-25T04:10:37;99993.31;;;5.26;91.03
79415;BME280;68864;44.972;19.612;2024-03-25T04:13:04;99997.59;;;5.24;90.92
79415;BME280;68864;44.972;19.612;2024-03-25T04:15:32;99998.16;;;5.17;91.30
79415;BME280;68864;44.972;19.612;2024-03-25T04:17:58;100003.00;;;5.20;90.29
79415;BME280;68864;44.972;19.612;2024-03-25T04:20:26;100001.72;;;5.17;90.55
79415;BME280;68864;44.972;19.612;2024-03-25T04:22:52;100005.16;;;5.14;90.88
79415;BME280;68864;44.972;19.612;2024-03-25T04:25:19;100002.06;;;5.16;90.95
79415;BME280;68864;44.972;19.612;2024-03-25T04:27:47;100005.31;;;5.18;91.00
79415;BME280;68864;44.972;19.612;2024-03-25T04:30:14;100014.72;;;5.17;90.76
79415;BME280;68864;44.972;19.612;2024-03-25T04:32:42;100022.22;;;5.16;90.88
79415;BME280;68864;44.972;19.612;2024-03-25T04:35:08;100023.03;;;5.17;90.40
79415;BME280;68864;44.972;19.612;2024-03-25T04:37:36;100030.97;;;5.18;90.38
79415;BME280;68864;44.972;19.612;2024-03-25T04:40:02;100026.38;;;5.23;90.27
79415;BME280;68864;44.972;19.612;2024-03-25T04:42:28;100033.63;;;5.27;89.73
79415;BME280;68864;44.972;19.612;2024-03-25T04:44:56;100032.63;;;5.32;89.80
79415;BME280;68864;44.972;19.612;2024-03-25T04:47:22;100023.16;;;5.33;89.96
79415;BME280;68864;44.972;19.612;2024-03-25T04:49:48;100025.13;;;5.32;89.51
79415;BME280;68864;44.972;19.612;2024-03-25T04:52:16;100022.00;;;5.34;89.03
79415;BME280;68864;44.972;19.612;2024-03-25T04:54:42;100023.97;;;5.33;89.18
79415;BME280;68864;44.972;19.612;2024-03-25T04:57:08;100038.03;;;5.40;89.29
79415;BME280;68864;44.972;19.612;2024-03-25T04:59:34;100039.66;;;5.41;88.81
79415;BME280;68864;44.972;19.612;2024-03-25T05:02:02;100032.75;;;5.47;89.47
79415;BME280;68864;44.972;19.612;2024-03-25T05:04:28;100036.81;;;5.50;88.27
79415;BME280;68864;44.972;19.612;2024-03-25T05:06:54;100038.84;;;5.53;88.48
79415;BME280;68864;44.972;19.612;2024-03-25T05:09:20;100033.91;;;5.58;87.69
79415;BME280;68864;44.972;19.612;2024-03-25T05:11:46;100044.06;;;5.67;87.15
79415;BME280;68864;44.972;19.612;2024-03-25T05:14:12;100034.75;;;5.71;86.77
79415;BME280;68864;44.972;19.612;2024-03-25T05:16:38;100043.75;;;5.80;85.86
79415;BME280;68864;44.972;19.612;2024-03-25T05:19:05;100044.00;;;5.87;85.76
79415;BME280;68864;44.972;19.612;2024-03-25T05:21:31;100050.34;;;5.88;84.96
79415;BME280;68864;44.972;19.612;2024-03-25T05:23:57;100044.47;;;6.02;84.05
79415;BME280;68864;44.972;19.612;2024-03-25T05:26:23;100060.84;;;6.07;83.48
79415;BME280;68864;44.972;19.612;2024-03-25T05:28:52;100064.53;;;6.23;83.03
79415;BME280;68864;44.972;19.612;2024-03-25T05:31:18;100063.03;;;6.37;82.38
79415;BME280;68864;44.972;19.612;2024-03-25T05:33:45;100066.16;;;6.76;80.66
79415;BME280;68864;44.972;19.612;2024-03-25T05:36:12;100057.16;;;9.18;70.32
79415;BME280;68864;44.972;19.612;2024-03-25T05:38:38;100071.00;;;8.95;69.98
79415;BME280;68864;44.972;19.612;2024-03-25T05:41:04;100078.03;;;8.89;70.98
79415;BME280;68864;44.972;19.612;2024-03-25T05:43:31;100075.97;;;11.54;62.17
79415;BME280;68864;44.972;19.612;2024-03-25T05:45:57;100084.69;;;13.86;55.27
79415;BME280;68864;44.972;19.612;2024-03-25T05:48:24;100090.41;;;17.43;44.50
79415;BME280;68864;44.972;19.612;2024-03-25T05:50:58;100084.09;;;19.89;38.07
79415;BME280;68864;44.972;19.612;2024-03-25T05:53:26;100088.47;;;22.02;34.51
79415;BME280;68864;44.972;19.612;2024-03-25T05:55:52;100065.59;;;20.97;36.58
79415;BME280;68864;44.972;19.612;2024-03-25T05:58:18;100084.94;;;23.52;32.44
79415;BME280;68864;44.972;19.612;2024-03-25T06:00:46;100073.25;;;24.70;27.99
79415;BME280;68864;44.972;19.612;2024-03-25T06:03:13;100079.81;;;26.04;27.58
79415;BME280;68864;44.972;19.612;2024-03-25T06:05:39;100082.38;;;26.92;26.54
79415;BME280;68864;44.972;19.612;2024-03-25T06:08:06;100087.44;;;27.50;25.16
79415;BME280;68864;44.972;19.612;2024-03-25T06:10:36;100080.56;;;25.62;24.51
79415;BME280;68864;44.972;19.612;2024-03-25T06:13:02;100080.13;;;20.99;35.02
79415;BME280;68864;44.972;19.612;2024-03-25T06:15:28;100082.25;;;19.23;38.74
79415;BME280;68864;44.972;19.612;2024-03-25T06:17:54;100098.00;;;17.16;43.82
79415;BME280;68864;44.972;19.612;2024-03-25T06:20:20;100098.41;;;16.29;44.44
79415;BME280;68864;44.972;19.612;2024-03-25T06:22:46;100105.00;;;17.01;43.84
79415;BME280;68864;44.972;19.612;2024-03-25T06:25:12;100101.25;;;17.15;42.52
79415;BME280;68864;44.972;19.612;2024-03-25T06:27:39;100099.41;;;16.05;45.30
79415;BME280;68864;44.972;19.612;2024-03-25T06:30:07;100109.03;;;16.55;44.42
79415;BME280;68864;44.972;19.612;2024-03-25T06:32:52;100116.25;;;15.18;47.34
79415;BME280;68864;44.972;19.612;2024-03-25T06:35:37;100115.56;;;14.14;50.40
79415;BME280;68864;44.972;19.612;2024-03-25T06:38:03;100120.25;;;13.68;51.93
79415;BME280;68864;44.972;19.612;2024-03-25T06:40:29;100125.00;;;13.53;53.00
79415;BME280;68864;44.972;19.612;2024-03-25T06:42:56;100131.88;;;12.94;53.92
79415;BME280;68864;44.972;19.612;2024-03-25T06:45:23;100138.56;;;12.75;55.22
79415;BME280;68864;44.972;19.612;2024-03-25T06:47:48;100135.50;;;13.91;52.47
79415;BME280;68864;44.972;19.612;2024-03-25T06:50:15;100137.84;;;15.53;47.87
79415;BME280;68864;44.972;19.612;2024-03-25T06:52:41;100135.00;;;20.24;37.29
79415;BME280;68864;44.972;19.612;2024-03-25T06:55:07;100125.28;;;22.06;32.47
79415;BME280;68864;44.972;19.612;2024-03-25T06:57:34;100118.13;;;25.61;27.75
79415;BME280;68864;44.972;19.612;2024-03-25T07:00:01;100125.88;;;27.73;24.53
79415;BME280;68864;44.972;19.612;2024-03-25T07:02:27;100120.06;;;25.18;27.37
79415;BME280;68864;44.972;19.612;2024-03-25T07:04:53;100125.50;;;22.24;32.64
79415;BME280;68864;44.972;19.612;2024-03-25T07:07:19;100128.91;;;24.93;28.22
79415;BME280;68864;44.972;19.612;2024-03-25T07:09:45;100133.16;;;23.00;31.62
79415;BME280;68864;44.972;19.612;2024-03-25T07:12:11;100134.22;;;23.15;30.89
79415;BME280;68864;44.972;19.612;2024-03-25T07:14:37;100143.75;;;26.48;25.20
79415;BME280;68864;44.972;19.612;2024-03-25T07:17:05;100139.50;;;29.47;21.97
79415;BME280;68864;44.972;19.612;2024-03-25T07:19:31;100146.75;;;29.22;22.04
79415;BME280;68864;44.972;19.612;2024-03-25T07:21:57;100132.31;;;28.12;23.04
79415;BME280;68864;44.972;19.612;2024-03-25T07:24:23;100131.25;;;32.04;17.28
79415;BME280;68864;44.972;19.612;2024-03-25T07:26:49;100129.88;;;36.06;13.76
79415;BME280;68864;44.972;19.612;2024-03-25T07:29:15;100129.03;;;38.09;11.69
79415;BME280;68864;44.972;19.612;2024-03-25T07:31:41;100138.66;;;39.23;10.73
79415;BME280;68864;44.972;19.612;2024-03-25T07:34:08;100125.59;;;40.19;9.39
79415;BME280;68864;44.972;19.612;2024-03-25T07:36:35;100128.56;;;40.87;9.42
79415;BME280;68864;44.972;19.612;2024-03-25T07:39:01;100124.50;;;41.45;8.69
79415;BME280;68864;44.972;19.612;2024-03-25T07:41:27;100120.50;;;41.73;7.83
79415;BME280;68864;44.972;19.612;2024-03-25T07:43:53;100125.44;;;42.28;7.48
79415;BME280;68864;44.972;19.612;2024-03-25T07:46:19;100119.44;;;42.68;7.35
79415;BME280;68864;44.972;19.612;2024-03-25T07:48:45;100120.19;;;42.93;7.56
79415;BME280;68864;44.972;19.612;2024-03-25T07:51:12;100113.13;;;42.54;7.36
79415;BME280;68864;44.972;19.612;2024-03-25T07:53:38;100117.75;;;42.82;7.79
79415;BME280;68864;44.972;19.612;2024-03-25T07:56:04;100122.19;;;43.25;7.00
79415;BME280;68864;44.972;19.612;2024-03-25T07:58:31;100123.53;;;42.90;7.04
79415;BME280;68864;44.972;19.612;2024-03-25T08:00:57;100124.16;;;43.84;7.34
79415;BME280;68864;44.972;19.612;2024-03-25T08:03:23;100110.88;;;44.10;7.13
79415;BME280;68864;44.972;19.612;2024-03-25T08:05:49;100116.97;;;44.21;6.83
79415;BME280;68864;44.972;19.612;2024-03-25T08:08:16;100103.13;;;44.97;7.11
79415;BME280;68864;44.972;19.612;2024-03-25T08:10:42;100103.44;;;45.01;6.85
79415;BME280;68864;44.972;19.612;2024-03-25T08:13:08;100102.97;;;45.43;6.96
79415;BME280;68864;44.972;19.612;2024-03-25T08:15:34;100104.84;;;45.58;6.87
79415;BME280;68864;44.972;19.612;2024-03-25T08:18:00;100102.84;;;45.12;7.33
79415;BME280;68864;44.972;19.612;2024-03-25T08:20:26;100110.44;;;45.34;7.25
79415;BME280;68864;44.972;19.612;2024-03-25T08:22:52;100111.31;;;45.85;6.66
79415;BME280;68864;44.972;19.612;2024-03-25T08:25:19;100110.72;;;45.86;6.99
79415;BME280;68864;44.972;19.612;2024-03-25T08:27:45;100108.56;;;46.18;7.21
79415;BME280;68864;44.972;19.612;2024-03-25T08:30:12;100119.03;;;46.00;7.21
79415;BME280;68864;44.972;19.612;2024-03-25T08:32:38;100122.19;;;45.63;7.67
79415;BME280;68864;44.972;19.612;2024-03-25T08:35:05;100116.63;;;45.67;7.36
79415;BME280;68864;44.972;19.612;2024-03-25T08:37:31;100119.09;;;46.31;7.42
79415;BME280;68864;44.972;19.612;2024-03-25T08:39:57;100122.31;;;45.75;7.63
79415;BME280;68864;44.972;19.612;2024-03-25T08:42:24;100136.97;;;46.13;7.01
79415;BME280;68864;44.972;19.612;2024-03-25T08:44:50;100132.41;;;45.04;7.52
79415;BME280;68864;44.972;19.612;2024-03-25T08:47:16;100133.69;;;45.49;7.85
79415;BME280;68864;44.972;19.612;2024-03-25T08:49:42;100136.94;;;45.34;7.99
79415;BME280;68864;44.972;19.612;2024-03-25T08:52:08;100135.34;;;45.04;7.76
79415;BME280;68864;44.972;19.612;2024-03-25T08:54:34;100137.53;;;45.62;7.37
79415;BME280;68864;44.972;19.612;2024-03-25T08:57:00;100129.13;;;45.77;7.52
79415;BME280;68864;44.972;19.612;2024-03-25T08:59:27;100143.16;;;43.56;8.57
79415;BME280;68864;44.972;19.612;2024-03-25T09:01:53;100120.91;;;37.47;12.26
79415;BME280;68864;44.972;19.612;2024-03-25T09:04:19;100129.97;;;33.41;15.66
79415;BME280;68864;44.972;19.612;2024-03-25T09:06:45;100135.91;;;30.61;18.84
79415;BME280;68864;44.972;19.612;2024-03-25T09:09:11;100138.88;;;28.62;20.93
79415;BME280;68864;44.972;19.612;2024-03-25T09:11:56;100125.47;;;27.12;22.14
79415;BME280;68864;44.972;19.612;2024-03-25T09:14:21;100141.88;;;26.45;23.55
79415;BME280;68864;44.972;19.612;2024-03-25T09:16:49;100153.09;;;26.25;23.95
79415;BME280;68864;44.972;19.612;2024-03-25T09:19:15;100148.75;;;25.79;23.60
79415;BME280;68864;44.972;19.612;2024-03-25T09:21:41;100151.91;;;25.44;24.32
79415;BME280;68864;44.972;19.612;2024-03-25T09:24:07;100155.38;;;25.21;25.60
79415;BME280;68864;44.972;19.612;2024-03-25T09:26:33;100152.50;;;24.93;25.24
79415;BME280;68864;44.972;19.612;2024-03-25T09:28:59;100163.50;;;24.24;25.48
79415;BME280;68864;44.972;19.612;2024-03-25T09:31:25;100147.66;;;24.01;24.93
79415;BME280;68864;44.972;19.612;2024-03-25T09:33:53;100140.47;;;23.44;25.70
79415;BME280;68864;44.972;19.612;2024-03-25T09:36:19;100152.06;;;23.15;27.45
79415;BME280;68864;44.972;19.612;2024-03-25T09:38:45;100149.25;;;23.37;27.26
79415;BME280;68864;44.972;19.612;2024-03-25T09:41:11;100143.50;;;23.28;28.63
79415;BME280;68864;44.972;19.612;2024-03-25T09:43:43;100149.09;;;22.84;28.59
79415;BME280;68864;44.972;19.612;2024-03-25T09:46:09;100147.84;;;22.22;27.75
79415;BME280;68864;44.972;19.612;2024-03-25T09:48:36;100150.28;;;21.95;28.59
79415;BME280;68864;44.972;19.612;2024-03-25T09:51:04;100155.16;;;21.40;28.62
79415;BME280;68864;44.972;19.612;2024-03-25T09:53:30;100159.19;;;21.26;28.72
79415;BME280;68864;44.972;19.612;2024-03-25T09:55:57;100152.56;;;20.68;29.92
79415;BME280;68864;44.972;19.612;2024-03-25T09:58:24;100148.41;;;20.56;29.77
79415;BME280;68864;44.972;19.612;2024-03-25T10:00:51;100151.78;;;20.68;30.57
79415;BME280;68864;44.972;19.612;2024-03-25T10:03:17;100148.06;;;20.71;30.38
79415;BME280;68864;44.972;19.612;2024-03-25T10:05:43;100143.63;;;20.70;30.34
79415;BME280;68864;44.972;19.612;2024-03-25T10:08:10;100142.50;;;20.51;30.79
79415;BME280;68864;44.972;19.612;2024-03-25T10:10:36;100145.44;;;20.47;31.26
79415;BME280;68864;44.972;19.612;2024-03-25T10:13:03;100137.28;;;20.49;32.16
79415;BME280;68864;44.972;19.612;2024-03-25T10:15:29;100133.00;;;20.41;31.14
79415;BME280;68864;44.972;19.612;2024-03-25T10:17:55;100124.63;;;20.38;31.72
79415;BME280;68864;44.972;19.612;2024-03-25T10:20:21;100133.00;;;20.41;32.03
79415;BME280;68864;44.972;19.612;2024-03-25T10:22:47;100129.91;;;20.36;31.48
79415;BME280;68864;44.972;19.612;2024-03-25T10:25:21;100138.66;;;20.25;33.33
79415;BME280;68864;44.972;19.612;2024-03-25T10:27:54;100137.16;;;20.20;32.80
79415;BME280;68864;44.972;19.612;2024-03-25T10:30:21;100131.06;;;19.86;31.68
79415;BME280;68864;44.972;19.612;2024-03-25T10:32:57;100129.31;;;19.72;32.14
79415;BME280;68864;44.972;19.612;2024-03-25T10:35:26;100130.53;;;19.91;32.76
79415;BME280;68864;44.972;19.612;2024-03-25T10:37:55;100129.25;;;19.76;32.79
79415;BME280;68864;44.972;19.612;2024-03-25T10:40:27;100122.31;;;19.97;32.53
79415;BME280;68864;44.972;19.612;2024-03-25T10:43:00;100108.25;;;19.93;31.92
79415;BME280;68864;44.972;19.612;2024-03-25T10:45:28;100111.09;;;19.93;32.25
79415;BME280;68864;44.972;19.612;2024-03-25T10:47:57;100116.88;;;19.50;32.37
79415;BME280;68864;44.972;19.612;2024-03-25T10:50:27;100097.50;;;19.49;31.35
79415;BME280;68864;44.972;19.612;2024-03-25T10:52:54;100102.72;;;19.50;30.75
79415;BME280;68864;44.972;19.612;2024-03-25T10:55:22;100101.84;;;19.73;30.71
79415;BME280;68864;44.972;19.612;2024-03-25T10:57:50;100099.19;;;19.46;31.15
79415;BME280;68864;44.972;19.612;2024-03-25T11:00:16;100104.53;;;19.21;31.02
79415;BME280;68864;44.972;19.612;2024-03-25T11:02:43;100108.22;;;19.18;30.19
79415;BME280;68864;44.972;19.612;2024-03-25T11:05:09;100109.41;;;18.97;30.71
79415;BME280;68864;44.972;19.612;2024-03-25T11:07:36;100108.66;;;18.73;30.75
79415;BME280;68864;44.972;19.612;2024-03-25T11:10:04;100109.63;;;18.63;31.44
79415;BME280;68864;44.972;19.612;2024-03-25T11:12:38;100102.31;;;18.65;31.95
79415;BME280;68864;44.972;19.612;2024-03-25T11:15:08;100091.31;;;18.94;31.04
79415;BME280;68864;44.972;19.612;2024-03-25T11:17:35;100100.31;;;19.29;30.00
79415;BME280;68864;44.972;19.612;2024-03-25T11:20:09;100094.03;;;19.41;30.01
79415;BME280;68864;44.972;19.612;2024-03-25T11:22:35;100098.53;;;19.58;29.60
79415;BME280;68864;44.972;19.612;2024-03-25T11:25:06;100089.75;;;19.33;29.80
79415;BME280;68864;44.972;19.612;2024-03-25T11:27:36;100098.66;;;19.12;29.26
79415;BME280;68864;44.972;19.612;2024-03-25T11:30:02;100096.75;;;19.05;29.47
79415;BME280;68864;44.972;19.612;2024-03-25T11:32:30;100087.19;;;18.99;29.12
79415;BME280;68864;44.972;19.612;2024-03-25T11:34:56;100091.16;;;19.01;28.90
79415;BME280;68864;44.972;19.612;2024-03-25T11:37:22;100080.75;;;18.75;28.68
79415;BME280;68864;44.972;19.612;2024-03-25T11:39:48;100093.19;;;18.58;29.56
79415;BME280;68864;44.972;19.612;2024-03-25T11:42:14;100087.69;;;18.47;29.84
79415;BME280;68864;44.972;19.612;2024-03-25T11:44:41;100080.63;;;18.36;30.47
79415;BME280;68864;44.972;19.612;2024-03-25T11:47:07;100081.91;;;18.31;30.99
79415;BME280;68864;44.972;19.612;2024-03-25T11:49:38;100081.00;;;18.38;30.80
79415;BME280;68864;44.972;19.612;2024-03-25T11:52:06;100087.53;;;18.58;31.53
79415;BME280;68864;44.972;19.612;2024-03-25T11:54:32;100093.59;;;18.56;30.54
79415;BME280;68864;44.972;19.612;2024-03-25T11:56:58;100080.53;;;18.66;30.27
79415;BME280;68864;44.972;19.612;2024-03-25T11:59:24;100077.47;;;18.57;30.29
79415;BME280;68864;44.972;19.612;2024-03-25T12:01:50;100078.28;;;18.57;31.00
79415;BME280;68864;44.972;19.612;2024-03-25T12:04:18;100072.03;;;18.43;31.00
79415;BME280;68864;44.972;19.612;2024-03-25T12:06:45;100080.47;;;18.46;31.82
79415;BME280;68864;44.972;19.612;2024-03-25T12:09:11;100065.59;;;18.42;31.11
79415;BME280;68864;44.972;19.612;2024-03-25T12:11:56;100069.78;;;18.34;31.31
79415;BME280;68864;44.972;19.612;2024-03-25T12:14:22;100057.56;;;18.17;32.28
79415;BME280;68864;44.972;19.612;2024-03-25T12:16:48;100055.75;;;18.04;30.73
79415;BME280;68864;44.972;19.612;2024-03-25T12:19:15;100072.75;;;18.23;31.42
79415;BME280;68864;44.972;19.612;2024-03-25T12:21:42;100066.13;;;18.10;31.43
79415;BME280;68864;44.972;19.612;2024-03-25T12:24:11;100058.56;;;18.04;31.22
79415;BME280;68864;44.972;19.612;2024-03-25T12:26:37;100054.72;;;17.94;31.05
79415;BME280;68864;44.972;19.612;2024-03-25T12:29:03;100057.84;;;18.00;31.19
79415;BME280;68864;44.972;19.612;2024-03-25T12:31:29;100052.72;;;17.91;31.05
79415;BME280;68864;44.972;19.612;2024-03-25T12:33:55;100046.47;;;17.80;30.67
79415;BME280;68864;44.972;19.612;2024-03-25T12:36:21;100041.09;;;17.59;30.98
79415;BME280;68864;44.972;19.612;2024-03-25T12:38:54;100052.16;;;17.46;31.03
79415;BME280;68864;44.972;19.612;2024-03-25T12:41:22;100036.81;;;17.20;31.73
79415;BME280;68864;44.972;19.612;2024-03-25T12:43:50;100047.84;;;17.04;31.96
79415;BME280;68864;44.972;19.612;2024-03-25T12:46:16;100046.78;;;16.91;32.17